Terminal Aerodrome Forecast
Issued by NWS

Home | Current Version | Previous Version | Text Only | Print | Product List | Glossary On
Versions: 1 2 3 4 5 6 7 8 9 10 11 12 13 14 15 16 17 18 19 20 21 22 23
000
FTUS43 KDVN 131100
TAFCID
TAF
KCID 131136Z 1312/1412 12007KT P6SM -RA OVC080
     FM131400 10011KT 6SM -RA BR VCTS OVC040CB
     FM131800 01008KT 1 1/2SM -RA BR OVC008
     FM140300 34015G25KT 2SM -RA BR OVC004
     FM140800 33019G27KT 3SM -RASN BR OVC010=

USA.gov is the U.S. government's official web portal to all federal, state and local government web resources and services.